sensor_id;sensor_type;location;lat;lon;timestamp;P1;durP1;ratioP1;P2;durP2;ratioP2
79785;SDS011;69265;43.614;13.518;2023-05-10T00:02:08;5.93;;;4.03;;
79785;SDS011;69265;43.614;13.518;2023-05-10T00:04:34;5.57;;;4.20;;
79785;SDS011;69265;43.614;13.518;2023-05-10T00:07:00;5.63;;;4.05;;
79785;SDS011;69265;43.614;13.518;2023-05-10T00:09:26;6.75;;;4.20;;
79785;SDS011;69265;43.614;13.518;2023-05-10T00:11:52;6.15;;;4.70;;
79785;SDS011;69265;43.614;13.518;2023-05-10T00:14:18;5.72;;;4.20;;
79785;SDS011;69265;43.614;13.518;2023-05-10T00:16:44;6.72;;;4.53;;
79785;SDS011;69265;43.614;13.518;2023-05-10T00:19:10;5.78;;;4.63;;
79785;SDS011;69265;43.614;13.518;2023-05-10T00:21:35;6.35;;;4.10;;
79785;SDS011;69265;43.614;13.518;2023-05-10T00:24:01;6.97;;;4.25;;
79785;SDS011;69265;43.614;13.518;2023-05-10T00:26:27;6.10;;;3.97;;
79785;SDS011;69265;43.614;13.518;2023-05-10T00:28:53;5.72;;;4.15;;
79785;SDS011;69265;43.614;13.518;2023-05-10T00:31:19;7.43;;;4.55;;
79785;SDS011;69265;43.614;13.518;2023-05-10T00:33:44;6.43;;;4.30;;
79785;SDS011;69265;43.614;13.518;2023-05-10T00:36:10;6.38;;;4.53;;
79785;SDS011;69265;43.614;13.518;2023-05-10T00:38:36;7.13;;;4.38;;
79785;SDS011;69265;43.614;13.518;2023-05-10T00:41:02;7.57;;;4.53;;
79785;SDS011;69265;43.614;13.518;2023-05-10T00:43:28;6.00;;;4.72;;
79785;SDS011;69265;43.614;13.518;2023-05-10T00:45:54;7.28;;;4.10;;
79785;SDS011;69265;43.614;13.518;2023-05-10T00:48:20;6.88;;;4.97;;
79785;SDS011;69265;43.614;13.518;2023-05-10T00:50:46;7.18;;;4.78;;
79785;SDS011;69265;43.614;13.518;2023-05-10T00:53:12;6.63;;;4.25;;
79785;SDS011;69265;43.614;13.518;2023-05-10T00:55:39;7.97;;;4.82;;
79785;SDS011;69265;43.614;13.518;2023-05-10T00:58:04;5.93;;;4.22;;
79785;SDS011;69265;43.614;13.518;2023-05-10T01:00:32;6.93;;;4.00;;
79785;SDS011;69265;43.614;13.518;2023-05-10T01:02:58;7.93;;;4.90;;
79785;SDS011;69265;43.614;13.518;2023-05-10T01:05:26;6.63;;;4.93;;
79785;SDS011;69265;43.614;13.518;2023-05-10T01:07:52;7.60;;;4.80;;
79785;SDS011;69265;43.614;13.518;2023-05-10T01:10:18;7.13;;;4.72;;
79785;SDS011;69265;43.614;13.518;2023-05-10T01:12:45;6.65;;;5.10;;
79785;SDS011;69265;43.614;13.518;2023-05-10T01:15:12;8.02;;;5.82;;
79785;SDS011;69265;43.614;13.518;2023-05-10T01:17:40;9.02;;;5.18;;
79785;SDS011;69265;43.614;13.518;2023-05-10T01:20:09;6.68;;;5.18;;
79785;SDS011;69265;43.614;13.518;2023-05-10T01:25:21;7.80;;;6.10;;
79785;SDS011;69265;43.614;13.518;2023-05-10T01:27:59;9.05;;;6.38;;
79785;SDS011;69265;43.614;13.518;2023-05-10T01:31:06;9.35;;;6.18;;
79785;SDS011;69265;43.614;13.518;2023-05-10T01:33:45;13.43;;;6.15;;
79785;SDS011;69265;43.614;13.518;2023-05-10T01:38:55;8.93;;;6.57;;
79785;SDS011;69265;43.614;13.518;2023-05-10T01:47:05;9.43;;;6.28;;
79785;SDS011;69265;43.614;13.518;2023-05-10T01:49:43;12.13;;;6.78;;
79785;SDS011;69265;43.614;13.518;2023-05-10T01:52:15;10.15;;;6.57;;
79785;SDS011;69265;43.614;13.518;2023-05-10T01:54:50;7.78;;;5.80;;
79785;SDS011;69265;43.614;13.518;2023-05-10T01:57:25;7.57;;;6.25;;
79785;SDS011;69265;43.614;13.518;2023-05-10T01:59:56;8.50;;;5.72;;
79785;SDS011;69265;43.614;13.518;2023-05-10T02:02:25;9.25;;;5.35;;
79785;SDS011;69265;43.614;13.518;2023-05-10T02:04:53;7.90;;;6.00;;
79785;SDS011;69265;43.614;13.518;2023-05-10T02:07:21;10.30;;;5.80;;
79785;SDS011;69265;43.614;13.518;2023-05-10T02:09:48;8.15;;;5.75;;
79785;SDS011;69265;43.614;13.518;2023-05-10T02:12:16;8.10;;;5.30;;
79785;SDS011;69265;43.614;13.518;2023-05-10T02:14:43;7.13;;;5.38;;
79785;SDS011;69265;43.614;13.518;2023-05-10T02:17:10;10.70;;;5.82;;
79785;SDS011;69265;43.614;13.518;2023-05-10T02:19:39;8.85;;;6.20;;
79785;SDS011;69265;43.614;13.518;2023-05-10T02:22:06;10.27;;;6.43;;
79785;SDS011;69265;43.614;13.518;2023-05-10T02:24:34;7.72;;;5.95;;
79785;SDS011;69265;43.614;13.518;2023-05-10T02:27:01;9.98;;;5.80;;
79785;SDS011;69265;43.614;13.518;2023-05-10T02:29:28;9.25;;;6.05;;
79785;SDS011;69265;43.614;13.518;2023-05-10T02:31:56;10.43;;;6.57;;
79785;SDS011;69265;43.614;13.518;2023-05-10T02:34:24;9.90;;;5.85;;
79785;SDS011;69265;43.614;13.518;2023-05-10T02:36:52;8.75;;;6.20;;
79785;SDS011;69265;43.614;13.518;2023-05-10T02:39:19;8.80;;;6.53;;
79785;SDS011;69265;43.614;13.518;2023-05-10T02:41:46;7.72;;;5.20;;
79785;SDS011;69265;43.614;13.518;2023-05-10T02:44:14;9.13;;;6.05;;
79785;SDS011;69265;43.614;13.518;2023-05-10T02:46:42;9.10;;;6.32;;
79785;SDS011;69265;43.614;13.518;2023-05-10T02:49:08;11.80;;;7.40;;
79785;SDS011;69265;43.614;13.518;2023-05-10T02:51:35;7.57;;;6.10;;
79785;SDS011;69265;43.614;13.518;2023-05-10T02:54:12;13.13;;;7.30;;
79785;SDS011;69265;43.614;13.518;2023-05-10T02:56:53;9.73;;;6.32;;
79785;SDS011;69265;43.614;13.518;2023-05-10T02:59:25;14.18;;;7.72;;
79785;SDS011;69265;43.614;13.518;2023-05-10T03:01:51;9.45;;;6.78;;
79785;SDS011;69265;43.614;13.518;2023-05-10T03:04:18;9.75;;;7.28;;
79785;SDS011;69265;43.614;13.518;2023-05-10T03:06:44;14.48;;;7.68;;
79785;SDS011;69265;43.614;13.518;2023-05-10T03:09:10;10.70;;;8.15;;
79785;SDS011;69265;43.614;13.518;2023-05-10T03:11:45;11.38;;;8.13;;
79785;SDS011;69265;43.614;13.518;2023-05-10T03:19:55;11.68;;;7.68;;
79785;SDS011;69265;43.614;13.518;2023-05-10T03:22:45;12.95;;;7.75;;
79785;SDS011;69265;43.614;13.518;2023-05-10T03:25:20;14.73;;;7.25;;
79785;SDS011;69265;43.614;13.518;2023-05-10T03:27:47;11.60;;;7.45;;
79785;SDS011;69265;43.614;13.518;2023-05-10T03:30:13;9.80;;;7.05;;
79785;SDS011;69265;43.614;13.518;2023-05-10T03:32:40;10.57;;;6.57;;
79785;SDS011;69265;43.614;13.518;2023-05-10T03:35:07;9.95;;;7.53;;
79785;SDS011;69265;43.614;13.518;2023-05-10T03:37:33;11.27;;;7.32;;
79785;SDS011;69265;43.614;13.518;2023-05-10T03:40:00;11.77;;;6.40;;
79785;SDS011;69265;43.614;13.518;2023-05-10T03:42:26;8.48;;;5.35;;
79785;SDS011;69265;43.614;13.518;2023-05-10T03:44:52;7.03;;;5.30;;
79785;SDS011;69265;43.614;13.518;2023-05-10T03:47:17;11.82;;;5.05;;
79785;SDS011;69265;43.614;13.518;2023-05-10T03:49:43;7.28;;;4.57;;
79785;SDS011;69265;43.614;13.518;2023-05-10T03:52:09;6.50;;;4.53;;
79785;SDS011;69265;43.614;13.518;2023-05-10T03:54:35;6.15;;;4.00;;
79785;SDS011;69265;43.614;13.518;2023-05-10T03:57:00;4.95;;;3.80;;
79785;SDS011;69265;43.614;13.518;2023-05-10T03:59:28;5.57;;;4.32;;
79785;SDS011;69265;43.614;13.518;2023-05-10T04:01:53;7.28;;;4.22;;
79785;SDS011;69265;43.614;13.518;2023-05-10T04:04:19;6.07;;;4.07;;
79785;SDS011;69265;43.614;13.518;2023-05-10T04:06:46;5.25;;;3.65;;
79785;SDS011;69265;43.614;13.518;2023-05-10T04:09:12;7.20;;;4.80;;
79785;SDS011;69265;43.614;13.518;2023-05-10T04:11:38;7.35;;;4.53;;
79785;SDS011;69265;43.614;13.518;2023-05-10T04:14:04;6.70;;;4.85;;
79785;SDS011;69265;43.614;13.518;2023-05-10T04:16:30;6.30;;;4.75;;
79785;SDS011;69265;43.614;13.518;2023-05-10T04:18:56;7.13;;;4.47;;
79785;SDS011;69265;43.614;13.518;2023-05-10T04:21:22;8.10;;;4.90;;
79785;SDS011;69265;43.614;13.518;2023-05-10T04:23:48;6.53;;;4.63;;
79785;SDS011;69265;43.614;13.518;2023-05-10T04:26:13;6.18;;;4.50;;
79785;SDS011;69265;43.614;13.518;2023-05-10T04:28:40;6.78;;;4.55;;
79785;SDS011;69265;43.614;13.518;2023-05-10T04:31:06;7.88;;;5.43;;
79785;SDS011;69265;43.614;13.518;2023-05-10T04:33:33;7.43;;;5.80;;
79785;SDS011;69265;43.614;13.518;2023-05-10T04:36:00;6.00;;;4.95;;
79785;SDS011;69265;43.614;13.518;2023-05-10T04:38:27;8.07;;;5.85;;
79785;SDS011;69265;43.614;13.518;2023-05-10T04:40:53;9.05;;;5.57;;
79785;SDS011;69265;43.614;13.518;2023-05-10T04:43:19;9.18;;;5.07;;
79785;SDS011;69265;43.614;13.518;2023-05-10T04:45:45;7.32;;;5.13;;
79785;SDS011;69265;43.614;13.518;2023-05-10T04:48:11;8.48;;;5.95;;
79785;SDS011;69265;43.614;13.518;2023-05-10T04:50:37;9.57;;;5.68;;
79785;SDS011;69265;43.614;13.518;2023-05-10T04:53:04;8.18;;;5.80;;
79785;SDS011;69265;43.614;13.518;2023-05-10T04:55:29;7.05;;;5.15;;
79785;SDS011;69265;43.614;13.518;2023-05-10T04:57:55;8.55;;;5.75;;
79785;SDS011;69265;43.614;13.518;2023-05-10T05:00:22;9.00;;;5.68;;
79785;SDS011;69265;43.614;13.518;2023-05-10T05:02:48;9.40;;;5.55;;
79785;SDS011;69265;43.614;13.518;2023-05-10T05:05:15;8.32;;;5.00;;
79785;SDS011;69265;43.614;13.518;2023-05-10T05:07:41;8.32;;;5.20;;
79785;SDS011;69265;43.614;13.518;2023-05-10T05:10:07;7.18;;;5.28;;
79785;SDS011;69265;43.614;13.518;2023-05-10T05:12:33;9.10;;;5.70;;
79785;SDS011;69265;43.614;13.518;2023-05-10T05:14:59;8.80;;;5.80;;
79785;SDS011;69265;43.614;13.518;2023-05-10T05:17:25;7.40;;;5.25;;
79785;SDS011;69265;43.614;13.518;2023-05-10T05:19:51;9.90;;;5.15;;
79785;SDS011;69265;43.614;13.518;2023-05-10T05:22:17;9.43;;;6.15;;
79785;SDS011;69265;43.614;13.518;2023-05-10T05:24:44;9.43;;;6.07;;
79785;SDS011;69265;43.614;13.518;2023-05-10T05:27:10;9.07;;;6.20;;
79785;SDS011;69265;43.614;13.518;2023-05-10T05:29:36;9.63;;;6.82;;
79785;SDS011;69265;43.614;13.518;2023-05-10T05:32:02;8.52;;;6.45;;
79785;SDS011;69265;43.614;13.518;2023-05-10T05:34:28;8.27;;;5.85;;
79785;SDS011;69265;43.614;13.518;2023-05-10T05:36:54;7.60;;;5.63;;
79785;SDS011;69265;43.614;13.518;2023-05-10T05:39:20;9.38;;;6.03;;
79785;SDS011;69265;43.614;13.518;2023-05-10T05:41:46;10.07;;;6.30;;
79785;SDS011;69265;43.614;13.518;2023-05-10T05:44:11;16.80;;;7.28;;
79785;SDS011;69265;43.614;13.518;2023-05-10T05:46:37;9.13;;;6.35;;
79785;SDS011;69265;43.614;13.518;2023-05-10T05:49:03;11.88;;;5.05;;
79785;SDS011;69265;43.614;13.518;2023-05-10T05:51:29;11.00;;;6.00;;
79785;SDS011;69265;43.614;13.518;2023-05-10T05:53:54;9.43;;;5.93;;
79785;SDS011;69265;43.614;13.518;2023-05-10T05:56:20;9.48;;;6.00;;
79785;SDS011;69265;43.614;13.518;2023-05-10T05:58:49;8.07;;;5.68;;
79785;SDS011;69265;43.614;13.518;2023-05-10T06:01:15;12.35;;;6.95;;
79785;SDS011;69265;43.614;13.518;2023-05-10T06:03:41;8.98;;;6.10;;
79785;SDS011;69265;43.614;13.518;2023-05-10T06:06:07;13.07;;;6.97;;
79785;SDS011;69265;43.614;13.518;2023-05-10T06:08:33;11.55;;;6.32;;
79785;SDS011;69265;43.614;13.518;2023-05-10T06:10:59;8.68;;;5.85;;
79785;SDS011;69265;43.614;13.518;2023-05-10T06:13:25;8.82;;;6.18;;
79785;SDS011;69265;43.614;13.518;2023-05-10T06:15:57;10.65;;;6.18;;
79785;SDS011;69265;43.614;13.518;2023-05-10T06:18:23;11.25;;;7.10;;
79785;SDS011;69265;43.614;13.518;2023-05-10T06:20:49;11.00;;;6.18;;
79785;SDS011;69265;43.614;13.518;2023-05-10T06:23:15;10.85;;;6.43;;
79785;SDS011;69265;43.614;13.518;2023-05-10T06:25:41;9.27;;;5.28;;
79785;SDS011;69265;43.614;13.518;2023-05-10T06:28:06;9.13;;;5.68;;
79785;SDS011;69265;43.614;13.518;2023-05-10T06:30:32;9.32;;;6.18;;
79785;SDS011;69265;43.614;13.518;2023-05-10T06:32:58;10.90;;;6.05;;
79785;SDS011;69265;43.614;13.518;2023-05-10T06:35:24;10.90;;;7.10;;
79785;SDS011;69265;43.614;13.518;2023-05-10T06:37:50;7.70;;;5.82;;
79785;SDS011;69265;43.614;13.518;2023-05-10T06:40:16;12.18;;;6.60;;
79785;SDS011;69265;43.614;13.518;2023-05-10T06:42:42;9.40;;;6.55;;
79785;SDS011;69265;43.614;13.518;2023-05-10T06:45:10;15.38;;;7.70;;
79785;SDS011;69265;43.614;13.518;2023-05-10T06:47:36;12.38;;;6.82;;
79785;SDS011;69265;43.614;13.518;2023-05-10T06:50:01;13.75;;;7.25;;
79785;SDS011;69265;43.614;13.518;2023-05-10T06:52:28;8.02;;;5.60;;
79785;SDS011;69265;43.614;13.518;2023-05-10T06:54:53;9.23;;;5.95;;
79785;SDS011;69265;43.614;13.518;2023-05-10T06:57:19;10.43;;;6.28;;
79785;SDS011;69265;43.614;13.518;2023-05-10T06:59:45;9.52;;;5.85;;
79785;SDS011;69265;43.614;13.518;2023-05-10T07:02:11;12.98;;;7.05;;
79785;SDS011;69265;43.614;13.518;2023-05-10T07:04:37;13.30;;;6.18;;
79785;SDS011;69265;43.614;13.518;2023-05-10T07:07:02;11.02;;;6.97;;
79785;SDS011;69265;43.614;13.518;2023-05-10T07:09:28;12.35;;;7.30;;
79785;SDS011;69265;43.614;13.518;2023-05-10T07:11:55;9.90;;;6.40;;
79785;SDS011;69265;43.614;13.518;2023-05-10T07:14:22;10.43;;;7.03;;
79785;SDS011;69265;43.614;13.518;2023-05-10T07:16:48;11.70;;;6.82;;
79785;SDS011;69265;43.614;13.518;2023-05-10T07:19:14;7.90;;;6.38;;
79785;SDS011;69265;43.614;13.518;2023-05-10T07:21:40;10.27;;;6.35;;
79785;SDS011;69265;43.614;13.518;2023-05-10T07:24:08;9.93;;;7.05;;
79785;SDS011;69265;43.614;13.518;2023-05-10T07:26:34;7.97;;;5.18;;
79785;SDS011;69265;43.614;13.518;2023-05-10T07:28:59;7.65;;;5.78;;
79785;SDS011;69265;43.614;13.518;2023-05-10T07:31:26;8.38;;;6.28;;
79785;SDS011;69265;43.614;13.518;2023-05-10T07:33:52;8.88;;;6.32;;
79785;SDS011;69265;43.614;13.518;2023-05-10T07:36:17;12.73;;;6.50;;
79785;SDS011;69265;43.614;13.518;2023-05-10T07:38:43;10.32;;;6.65;;
79785;SDS011;69265;43.614;13.518;2023-05-10T07:41:09;15.52;;;8.20;;
79785;SDS011;69265;43.614;13.518;2023-05-10T07:43:36;13.20;;;6.43;;
79785;SDS011;69265;43.614;13.518;2023-05-10T07:46:02;11.75;;;6.25;;
79785;SDS011;69265;43.614;13.518;2023-05-10T07:48:28;9.00;;;6.40;;
79785;SDS011;69265;43.614;13.518;2023-05-10T07:50:53;10.38;;;6.88;;
79785;SDS011;69265;43.614;13.518;2023-05-10T07:53:19;10.40;;;7.72;;
79785;SDS011;69265;43.614;13.518;2023-05-10T07:55:49;12.32;;;7.80;;
79785;SDS011;69265;43.614;13.518;2023-05-10T07:58:16;11.63;;;7.28;;
79785;SDS011;69265;43.614;13.518;2023-05-10T08:00:42;11.68;;;6.72;;
79785;SDS011;69265;43.614;13.518;2023-05-10T08:03:08;9.15;;;6.15;;
79785;SDS011;69265;43.614;13.518;2023-05-10T08:05:34;8.70;;;6.03;;
79785;SDS011;69265;43.614;13.518;2023-05-10T08:08:00;8.95;;;5.82;;
79785;SDS011;69265;43.614;13.518;2023-05-10T08:10:25;8.52;;;6.20;;
79785;SDS011;69265;43.614;13.518;2023-05-10T08:12:51;7.57;;;5.47;;
79785;SDS011;69265;43.614;13.518;2023-05-10T08:15:17;9.98;;;6.07;;
79785;SDS011;69265;43.614;13.518;2023-05-10T08:17:43;13.15;;;6.50;;
79785;SDS011;69265;43.614;13.518;2023-05-10T08:20:08;8.73;;;5.82;;
79785;SDS011;69265;43.614;13.518;2023-05-10T08:22:34;9.05;;;6.07;;
79785;SDS011;69265;43.614;13.518;2023-05-10T08:25:00;9.25;;;6.63;;
79785;SDS011;69265;43.614;13.518;2023-05-10T08:27:26;10.63;;;5.93;;
79785;SDS011;69265;43.614;13.518;2023-05-10T08:29:52;9.65;;;6.53;;
79785;SDS011;69265;43.614;13.518;2023-05-10T08:32:17;8.63;;;5.50;;
79785;SDS011;69265;43.614;13.518;2023-05-10T08:34:43;10.25;;;6.93;;
79785;SDS011;69265;43.614;13.518;2023-05-10T08:37:09;7.55;;;5.68;;
79785;SDS011;69265;43.614;13.518;2023-05-10T08:39:37;9.13;;;6.68;;
79785;SDS011;69265;43.614;13.518;2023-05-10T08:42:04;10.35;;;6.82;;
79785;SDS011;69265;43.614;13.518;2023-05-10T08:44:34;9.65;;;6.38;;
79785;SDS011;69265;43.614;13.518;2023-05-10T08:47:04;9.00;;;5.82;;
79785;SDS011;69265;43.614;13.518;2023-05-10T08:49:32;8.32;;;6.40;;
79785;SDS011;69265;43.614;13.518;2023-05-10T08:51:59;10.18;;;6.97;;
79785;SDS011;69265;43.614;13.518;2023-05-10T08:54:29;9.68;;;6.10;;
79785;SDS011;69265;43.614;13.518;2023-05-10T08:56:56;9.65;;;6.28;;
79785;SDS011;69265;43.614;13.518;2023-05-10T08:59:22;9.65;;;6.70;;
79785;SDS011;69265;43.614;13.518;2023-05-10T09:01:48;11.00;;;7.28;;
79785;SDS011;69265;43.614;13.518;2023-05-10T09:04:15;8.18;;;5.82;;
79785;SDS011;69265;43.614;13.518;2023-05-10T09:06:41;9.63;;;6.32;;
79785;SDS011;69265;43.614;13.518;2023-05-10T09:09:07;8.70;;;5.30;;
79785;SDS011;69265;43.614;13.518;2023-05-10T09:11:33;7.53;;;6.05;;
79785;SDS011;69265;43.614;13.518;2023-05-10T09:14:00;7.07;;;5.32;;
79785;SDS011;69265;43.614;13.518;2023-05-10T09:16:26;6.25;;;4.38;;
79785;SDS011;69265;43.614;13.518;2023-05-10T09:18:52;8.50;;;5.40;;
79785;SDS011;69265;43.614;13.518;2023-05-10T09:21:19;7.65;;;5.20;;
79785;SDS011;69265;43.614;13.518;2023-05-10T09:23:45;7.47;;;5.07;;
79785;SDS011;69265;43.614;13.518;2023-05-10T09:26:11;6.22;;;4.03;;
79785;SDS011;69265;43.614;13.518;2023-05-10T09:28:50;7.28;;;4.55;;
79785;SDS011;69265;43.614;13.518;2023-05-10T09:31:16;5.82;;;4.50;;
79785;SDS011;69265;43.614;13.518;2023-05-10T09:33:48;5.63;;;4.38;;
79785;SDS011;69265;43.614;13.518;2023-05-10T09:36:15;7.40;;;5.28;;
79785;SDS011;69265;43.614;13.518;2023-05-10T09:41:20;7.07;;;4.93;;
79785;SDS011;69265;43.614;13.518;2023-05-10T09:43:47;6.95;;;5.47;;
79785;SDS011;69265;43.614;13.518;2023-05-10T09:46:13;6.80;;;4.95;;
79785;SDS011;69265;43.614;13.518;2023-05-10T09:48:44;8.93;;;5.80;;
79785;SDS011;69265;43.614;13.518;2023-05-10T09:51:18;7.25;;;5.00;;
79785;SDS011;69265;43.614;13.518;2023-05-10T09:53:45;8.48;;;5.72;;
79785;SDS011;69265;43.614;13.518;2023-05-10T09:56:11;6.95;;;5.43;;
79785;SDS011;69265;43.614;13.518;2023-05-10T09:58:37;9.18;;;5.40;;
79785;SDS011;69265;43.614;13.518;2023-05-10T10:01:09;6.22;;;5.03;;
79785;SDS011;69265;43.614;13.518;2023-05-10T10:03:41;9.68;;;5.50;;
79785;SDS011;69265;43.614;13.518;2023-05-10T10:06:08;8.02;;;6.10;;
79785;SDS011;69265;43.614;13.518;2023-05-10T10:08:34;7.88;;;5.38;;
79785;SDS011;69265;43.614;13.518;2023-05-10T10:10:59;6.63;;;5.15;;
79785;SDS011;69265;43.614;13.518;2023-05-10T10:13:26;7.00;;;6.15;;
79785;SDS011;69265;43.614;13.518;2023-05-10T10:15:52;8.32;;;6.43;;
79785;SDS011;69265;43.614;13.518;2023-05-10T10:18:19;7.65;;;5.68;;
79785;SDS011;69265;43.614;13.518;2023-05-10T10:20:52;8.70;;;6.03;;
79785;SDS011;69265;43.614;13.518;2023-05-10T10:23:19;8.77;;;6.75;;
79785;SDS011;69265;43.614;13.518;2023-05-10T10:25:44;7.32;;;6.25;;
79785;SDS011;69265;43.614;13.518;2023-05-10T10:30:49;7.82;;;6.45;;
79785;SDS011;69265;43.614;13.518;2023-05-10T10:36:06;8.88;;;6.20;;
79785;SDS011;69265;43.614;13.518;2023-05-10T10:38:35;8.02;;;5.88;;
79785;SDS011;69265;43.614;13.518;2023-05-10T10:47:27;8.98;;;6.50;;
79785;SDS011;69265;43.614;13.518;2023-05-10T10:50:13;10.10;;;6.75;;
79785;SDS011;69265;43.614;13.518;2023-05-10T10:52:41;9.65;;;6.68;;
79785;SDS011;69265;43.614;13.518;2023-05-10T10:55:09;9.30;;;7.05;;
79785;SDS011;69265;43.614;13.518;2023-05-10T11:00:17;10.23;;;6.53;;
79785;SDS011;69265;43.614;13.518;2023-05-10T11:02:57;10.30;;;7.43;;
79785;SDS011;69265;43.614;13.518;2023-05-10T11:05:38;8.35;;;6.70;;
79785;SDS011;69265;43.614;13.518;2023-05-10T11:08:31;10.32;;;7.22;;
79785;SDS011;69265;43.614;13.518;2023-05-10T11:13:29;10.93;;;6.97;;
79785;SDS011;69265;43.614;13.518;2023-05-10T11:16:12;11.93;;;7.90;;
79785;SDS011;69265;43.614;13.518;2023-05-10T11:18:38;10.77;;;6.75;;
79785;SDS011;69265;43.614;13.518;2023-05-10T11:21:04;10.50;;;8.07;;
79785;SDS011;69265;43.614;13.518;2023-05-10T11:26:10;9.93;;;7.50;;
79785;SDS011;69265;43.614;13.518;2023-05-10T11:28:43;9.18;;;7.30;;
79785;SDS011;69265;43.614;13.518;2023-05-10T11:31:10;12.32;;;8.70;;
79785;SDS011;69265;43.614;13.518;2023-05-10T11:33:48;11.23;;;7.85;;
79785;SDS011;69265;43.614;13.518;2023-05-10T11:36:16;11.80;;;8.48;;
79785;SDS011;69265;43.614;13.518;2023-05-10T11:38:43;10.20;;;7.47;;
79785;SDS011;69265;43.614;13.518;2023-05-10T11:41:09;8.90;;;7.25;;
79785;SDS011;69265;43.614;13.518;2023-05-10T11:43:36;10.10;;;7.70;;
79785;SDS011;69265;43.614;13.518;2023-05-10T11:46:06;10.32;;;7.97;;
79785;SDS011;69265;43.614;13.518;2023-05-10T11:48:34;10.63;;;8.52;;
79785;SDS011;69265;43.614;13.518;2023-05-10T11:51:00;10.18;;;7.43;;
79785;SDS011;69265;43.614;13.518;2023-05-10T11:53:29;11.60;;;8.00;;
79785;SDS011;69265;43.614;13.518;2023-05-10T11:56:02;10.30;;;8.10;;
79785;SDS011;69265;43.614;13.518;2023-05-10T11:58:32;12.82;;;8.80;;
79785;SDS011;69265;43.614;13.518;2023-05-10T12:00:59;11.68;;;8.20;;
79785;SDS011;69265;43.614;13.518;2023-05-10T12:03:29;11.45;;;8.07;;
79785;SDS011;69265;43.614;13.518;2023-05-10T12:05:55;10.98;;;8.50;;
79785;SDS011;69265;43.614;13.518;2023-05-10T12:08:23;9.73;;;8.07;;
79785;SDS011;69265;43.614;13.518;2023-05-10T12:10:50;10.32;;;7.80;;
79785;SDS011;69265;43.614;13.518;2023-05-10T12:13:17;11.93;;;8.68;;
79785;SDS011;69265;43.614;13.518;2023-05-10T12:15:43;9.68;;;7.53;;
79785;SDS011;69265;43.614;13.518;2023-05-10T12:18:10;8.88;;;7.25;;
79785;SDS011;69265;43.614;13.518;2023-05-10T12:20:37;9.25;;;7.82;;
79785;SDS011;69265;43.614;13.518;2023-05-10T12:23:03;11.77;;;8.70;;
79785;SDS011;69265;43.614;13.518;2023-05-10T12:25:33;9.98;;;7.28;;
79785;SDS011;69265;43.614;13.518;2023-05-10T12:28:05;12.57;;;8.80;;
79785;SDS011;69265;43.614;13.518;2023-05-10T12:30:33;12.15;;;8.57;;
79785;SDS011;69265;43.614;13.518;2023-05-10T12:33:06;10.30;;;7.88;;
79785;SDS011;69265;43.614;13.518;2023-05-10T12:35:44;11.15;;;8.65;;
79785;SDS011;69265;43.614;13.518;2023-05-10T12:38:27;10.80;;;7.80;;
79785;SDS011;69265;43.614;13.518;2023-05-10T12:43:27;9.45;;;6.85;;
79785;SDS011;69265;43.614;13.518;2023-05-10T12:45:52;9.27;;;7.43;;
79785;SDS011;69265;43.614;13.518;2023-05-10T12:48:18;10.18;;;7.30;;
79785;SDS011;69265;43.614;13.518;2023-05-10T12:50:45;8.85;;;7.32;;
79785;SDS011;69265;43.614;13.518;2023-05-10T12:53:11;13.25;;;8.35;;
79785;SDS011;69265;43.614;13.518;2023-05-10T12:55:38;10.93;;;7.40;;
79785;SDS011;69265;43.614;13.518;2023-05-10T12:58:04;10.60;;;8.20;;
79785;SDS011;69265;43.614;13.518;2023-05-10T13:00:30;11.77;;;7.43;;
79785;SDS011;69265;43.614;13.518;2023-05-10T13:02:56;10.75;;;8.45;;
79785;SDS011;69265;43.614;13.518;2023-05-10T13:05:21;11.20;;;7.45;;
79785;SDS011;69265;43.614;13.518;2023-05-10T13:07:47;10.13;;;8.50;;
79785;SDS011;69265;43.614;13.518;2023-05-10T13:10:13;11.05;;;8.40;;
79785;SDS011;69265;43.614;13.518;2023-05-10T13:12:39;11.95;;;8.55;;
79785;SDS011;69265;43.614;13.518;2023-05-10T13:15:05;11.52;;;9.38;;
79785;SDS011;69265;43.614;13.518;2023-05-10T13:17:31;11.55;;;8.30;;
79785;SDS011;69265;43.614;13.518;2023-05-10T13:19:57;13.65;;;10.73;;
79785;SDS011;69265;43.614;13.518;2023-05-10T13:22:23;17.48;;;10.32;;
79785;SDS011;69265;43.614;13.518;2023-05-10T13:24:48;14.00;;;9.63;;
79785;SDS011;69265;43.614;13.518;2023-05-10T13:27:14;11.65;;;8.50;;
79785;SDS011;69265;43.614;13.518;2023-05-10T13:29:40;13.15;;;9.75;;
79785;SDS011;69265;43.614;13.518;2023-05-10T13:32:06;14.27;;;10.05;;
79785;SDS011;69265;43.614;13.518;2023-05-10T13:34:31;12.27;;;7.88;;
79785;SDS011;69265;43.614;13.518;2023-05-10T13:36:57;11.95;;;8.88;;
79785;SDS011;69265;43.614;13.518;2023-05-10T13:39:23;13.50;;;9.02;;
79785;SDS011;69265;43.614;13.518;2023-05-10T13:41:48;13.05;;;8.55;;
79785;SDS011;69265;43.614;13.518;2023-05-10T13:44:14;9.88;;;7.70;;
79785;SDS011;69265;43.614;13.518;2023-05-10T13:46:40;10.15;;;7.93;;
79785;SDS011;69265;43.614;13.518;2023-05-10T13:49:10;10.93;;;8.00;;
79785;SDS011;69265;43.614;13.518;2023-05-10T13:51:35;14.63;;;10.27;;
79785;SDS011;69265;43.614;13.518;2023-05-10T13:54:01;12.45;;;8.60;;
79785;SDS011;69265;43.614;13.518;2023-05-10T13:56:28;13.30;;;9.80;;
79785;SDS011;69265;43.614;13.518;2023-05-10T13:58:53;13.80;;;8.82;;
79785;SDS011;69265;43.614;13.518;2023-05-10T14:01:19;14.15;;;9.32;;
79785;SDS011;69265;43.614;13.518;2023-05-10T14:03:45;10.55;;;7.78;;
79785;SDS011;69265;43.614;13.518;2023-05-10T14:06:11;10.70;;;9.13;;
79785;SDS011;69265;43.614;13.518;2023-05-10T14:08:36;11.70;;;8.10;;
79785;SDS011;69265;43.614;13.518;2023-05-10T14:11:02;11.05;;;8.02;;
79785;SDS011;69265;43.614;13.518;2023-05-10T14:13:28;11.35;;;8.30;;
79785;SDS011;69265;43.614;13.518;2023-05-10T14:15:54;12.90;;;8.48;;
79785;SDS011;69265;43.614;13.518;2023-05-10T14:18:20;11.98;;;8.25;;
79785;SDS011;69265;43.614;13.518;2023-05-10T14:20:46;11.05;;;7.72;;
79785;SDS011;69265;43.614;13.518;2023-05-10T14:23:12;9.88;;;7.47;;
79785;SDS011;69265;43.614;13.518;2023-05-10T14:25:39;12.10;;;7.60;;
79785;SDS011;69265;43.614;13.518;2023-05-10T14:28:05;9.13;;;7.28;;
79785;SDS011;69265;43.614;13.518;2023-05-10T14:30:31;13.00;;;7.63;;
79785;SDS011;69265;43.614;13.518;2023-05-10T14:32:59;11.23;;;7.45;;
79785;SDS011;69265;43.614;13.518;2023-05-10T14:35:26;9.65;;;7.50;;
79785;SDS011;69265;43.614;13.518;2023-05-10T14:37:52;10.95;;;8.45;;
79785;SDS011;69265;43.614;13.518;2023-05-10T14:40:18;11.10;;;8.82;;
79785;SDS011;69265;43.614;13.518;2023-05-10T14:42:44;12.48;;;9.10;;
79785;SDS011;69265;43.614;13.518;2023-05-10T14:45:10;10.55;;;7.75;;
79785;SDS011;69265;43.614;13.518;2023-05-10T14:47:37;11.82;;;9.30;;
79785;SDS011;69265;43.614;13.518;2023-05-10T14:50:02;12.70;;;9.02;;
79785;SDS011;69265;43.614;13.518;2023-05-10T14:52:28;13.02;;;9.10;;
79785;SDS011;69265;43.614;13.518;2023-05-10T14:54:54;15.80;;;10.27;;
79785;SDS011;69265;43.614;13.518;2023-05-10T14:57:20;16.27;;;10.48;;
79785;SDS011;69265;43.614;13.518;2023-05-10T14:59:46;15.27;;;10.80;;
79785;SDS011;69265;43.614;13.518;2023-05-10T15:02:11;15.23;;;10.90;;
79785;SDS011;69265;43.614;13.518;2023-05-10T15:04:37;14.70;;;11.40;;
79785;SDS011;69265;43.614;13.518;2023-05-10T15:07:03;17.23;;;12.00;;
79785;SDS011;69265;43.614;13.518;2023-05-10T15:09:29;18.58;;;11.82;;
79785;SDS011;69265;43.614;13.518;2023-05-10T15:11:55;18.27;;;13.75;;